createdAt,value
2017-11-19T00:00:49.080Z,998.89
2017-11-19T00:01:49.064Z,998.85
2017-11-19T00:02:49.062Z,998.86
2017-11-19T00:03:49.015Z,998.86
2017-11-19T00:04:48.900Z,998.84
2017-11-19T00:05:48.889Z,998.87
2017-11-19T00:06:48.858Z,998.90
2017-11-19T00:07:48.849Z,998.89
2017-11-19T00:08:48.964Z,998.89
2017-11-19T00:09:48.817Z,998.88
2017-11-19T00:10:48.900Z,998.81
2017-11-19T00:11:48.795Z,998.83
2017-11-19T00:12:48.760Z,998.82
2017-11-19T00:13:48.845Z,998.81
2017-11-19T00:14:48.805Z,998.77
2017-11-19T00:15:48.700Z,998.74
2017-11-19T00:16:48.687Z,998.76
2017-11-19T00:17:48.683Z,998.70
2017-11-19T00:18:48.684Z,998.73
2017-11-19T00:19:48.631Z,998.67
2017-11-19T00:20:48.666Z,998.66
2017-11-19T00:21:48.586Z,998.62
2017-11-19T00:22:48.587Z,998.64
2017-11-19T00:23:48.562Z,998.59
2017-11-19T00:24:48.544Z,998.56
2017-11-19T00:25:48.523Z,998.57
2017-11-19T00:26:48.572Z,998.53
2017-11-19T00:27:48.481Z,998.53
2017-11-19T00:28:48.458Z,998.51
2017-11-19T00:29:48.440Z,998.46
2017-11-19T00:30:48.441Z,998.46
2017-11-19T00:31:48.420Z,998.41
2017-11-19T00:32:48.441Z,998.38
2017-11-19T00:33:48.419Z,998.35
2017-11-19T00:34:48.358Z,998.39
2017-11-19T00:35:48.336Z,998.40
2017-11-19T00:36:48.335Z,998.39
2017-11-19T00:37:48.318Z,998.38
2017-11-19T00:38:48.351Z,998.38
2017-11-19T00:39:48.279Z,998.38
2017-11-19T00:40:48.253Z,998.42
2017-11-19T00:41:48.309Z,998.34
2017-11-19T00:42:48.217Z,998.40
2017-11-19T00:43:48.271Z,998.36
2017-11-19T00:44:48.176Z,998.46
2017-11-19T00:45:48.160Z,998.37
2017-11-19T00:46:48.149Z,998.36
2017-11-19T00:47:48.135Z,998.35
2017-11-19T00:48:48.127Z,998.35
2017-11-19T00:49:48.181Z,998.34
2017-11-19T00:50:48.076Z,998.31
2017-11-19T00:51:48.068Z,998.30
2017-11-19T00:52:48.064Z,998.29
2017-11-19T00:53:48.054Z,998.33
2017-11-19T00:54:48.473Z,998.29
2017-11-19T00:55:47.993Z,998.37
2017-11-19T00:56:48.116Z,998.29
2017-11-19T00:57:47.948Z,998.34
2017-11-19T00:58:47.941Z,998.36
2017-11-19T00:59:47.949Z,998.36
2017-11-19T01:00:48.024Z,998.34
2017-11-19T01:01:47.869Z,998.33
2017-11-19T01:02:47.909Z,998.33
2017-11-19T01:03:47.829Z,998.35
2017-11-19T01:04:47.862Z,998.29
2017-11-19T01:05:47.811Z,998.36
2017-11-19T01:06:47.926Z,998.33
2017-11-19T01:07:47.777Z,998.33
2017-11-19T01:08:47.765Z,998.30
2017-11-19T01:09:47.807Z,998.30
2017-11-19T01:10:47.715Z,998.35
2017-11-19T01:11:47.725Z,998.31
2017-11-19T01:12:47.855Z,998.33
2017-11-19T01:13:47.674Z,998.34
2017-11-19T01:14:47.650Z,998.32
2017-11-19T01:15:47.630Z,998.25
2017-11-19T01:16:47.606Z,998.30
2017-11-19T01:17:47.596Z,998.33
2017-11-19T01:18:47.609Z,998.27
2017-11-19T01:19:47.569Z,998.36
2017-11-19T01:20:47.588Z,998.31
2017-11-19T01:21:47.507Z,998.31
2017-11-19T01:22:47.548Z,998.31
2017-11-19T01:23:47.491Z,998.27
2017-11-19T01:24:47.454Z,998.22
2017-11-19T01:25:47.494Z,998.25
2017-11-19T01:26:47.425Z,998.24
2017-11-19T01:27:47.430Z,998.24
2017-11-19T01:28:47.417Z,998.21
2017-11-19T01:29:47.451Z,998.24
2017-11-19T01:30:47.350Z,998.26
2017-11-19T01:31:47.399Z,998.30
2017-11-19T01:32:47.317Z,998.20
2017-11-19T01:33:47.304Z,998.29
2017-11-19T01:34:47.296Z,998.21
2017-11-19T01:35:47.503Z,998.25
2017-11-19T01:36:47.248Z,998.26
2017-11-19T01:37:47.302Z,998.22
2017-11-19T01:38:47.227Z,998.21
2017-11-19T01:39:47.181Z,998.19
2017-11-19T01:40:47.179Z,998.18
2017-11-19T01:41:47.171Z,998.18
2017-11-19T01:42:47.168Z,998.21
2017-11-19T01:43:47.257Z,998.23
2017-11-19T01:44:47.214Z,998.16
2017-11-19T01:45:47.114Z,998.17
2017-11-19T01:46:47.119Z,998.22
2017-11-19T01:47:47.046Z,998.19
2017-11-19T01:48:47.063Z,998.22
2017-11-19T01:49:47.050Z,998.27
2017-11-19T01:50:47.021Z,998.26
2017-11-19T01:51:46.960Z,998.27
2017-11-19T01:52:47.026Z,998.19
2017-11-19T01:53:46.938Z,998.20
2017-11-19T01:54:46.964Z,998.22
2017-11-19T01:55:46.910Z,998.18
2017-11-19T01:56:46.884Z,998.13
2017-11-19T01:57:46.863Z,998.21
2017-11-19T01:58:46.877Z,998.20
2017-11-19T01:59:46.901Z,998.23
2017-11-19T02:00:46.801Z,998.21
2017-11-19T02:01:46.789Z,998.18
2017-11-19T02:02:46.769Z,998.25
2017-11-19T02:03:46.746Z,998.17
2017-11-19T02:04:46.730Z,998.21
2017-11-19T02:05:46.764Z,998.21
2017-11-19T02:06:46.711Z,998.20
2017-11-19T02:07:47.444Z,998.23
2017-11-19T02:08:46.665Z,998.21
2017-11-19T02:09:46.660Z,998.22
2017-11-19T02:10:46.621Z,998.20
2017-11-19T02:11:46.643Z,998.17
2017-11-19T02:12:46.585Z,998.23
2017-11-19T02:13:46.641Z,998.24
2017-11-19T02:14:46.543Z,998.27
2017-11-19T02:15:46.535Z,998.29
2017-11-19T02:16:46.507Z,998.29
2017-11-19T02:17:46.488Z,998.26
2017-11-19T02:18:46.475Z,998.24
2017-11-19T02:19:46.515Z,998.22
2017-11-19T02:20:46.435Z,998.29
2017-11-19T02:21:46.412Z,998.24
2017-11-19T02:22:46.420Z,998.25
2017-11-19T02:23:46.409Z,998.26
2017-11-19T02:24:46.376Z,998.22
2017-11-19T02:25:46.953Z,998.21
2017-11-19T02:26:46.338Z,998.18
2017-11-19T02:27:46.317Z,998.12
2017-11-19T02:28:46.299Z,998.14
2017-11-19T02:29:46.940Z,998.16
2017-11-19T02:30:46.267Z,998.13
2017-11-19T02:31:46.311Z,998.12
2017-11-19T02:32:46.224Z,998.12
2017-11-19T02:33:46.239Z,998.07
2017-11-19T02:34:46.187Z,998.05
2017-11-19T02:35:46.190Z,998.06
2017-11-19T02:36:46.158Z,998.03
2017-11-19T02:37:46.168Z,998.04
2017-11-19T02:38:46.120Z,998.02
2017-11-19T02:39:46.089Z,998.01
2017-11-19T02:40:46.068Z,997.98
2017-11-19T02:41:46.196Z,997.95
2017-11-19T02:42:46.053Z,997.98
2017-11-19T02:43:46.027Z,998.01
2017-11-19T02:44:45.999Z,998.01
2017-11-19T02:45:46.000Z,998.00
2017-11-19T02:46:45.994Z,997.97
2017-11-19T02:47:45.978Z,997.94
2017-11-19T02:48:45.931Z,997.97
2017-11-19T02:49:45.933Z,997.92
2017-11-19T02:50:45.907Z,997.96
2017-11-19T02:51:45.891Z,997.98
2017-11-19T02:52:45.901Z,998.05
2017-11-19T02:53:45.838Z,997.99
2017-11-19T02:54:45.833Z,998.01
2017-11-19T02:55:45.842Z,998.00
2017-11-19T02:56:45.786Z,997.95
2017-11-19T02:57:45.841Z,997.93
2017-11-19T02:58:45.783Z,997.93
2017-11-19T02:59:45.737Z,997.85
2017-11-19T03:00:45.720Z,997.87
2017-11-19T03:01:45.705Z,997.88
2017-11-19T03:02:45.687Z,997.87
2017-11-19T03:03:45.718Z,997.88
2017-11-19T03:04:45.641Z,997.89
2017-11-19T03:05:45.635Z,997.86
2017-11-19T03:06:45.609Z,997.88
2017-11-19T03:07:45.607Z,997.88
2017-11-19T03:08:45.578Z,997.91
2017-11-19T03:09:45.592Z,997.92
2017-11-19T03:10:45.530Z,997.92
2017-11-19T03:11:45.615Z,997.98
2017-11-19T03:12:45.506Z,997.92
2017-11-19T03:13:45.475Z,997.94
2017-11-19T03:14:45.515Z,997.99
2017-11-19T03:15:45.450Z,997.97
2017-11-19T03:16:45.435Z,997.94
2017-11-19T03:17:45.404Z,997.89
2017-11-19T03:18:45.391Z,998.02
2017-11-19T03:19:45.379Z,998.04
2017-11-19T03:20:45.431Z,997.99
2017-11-19T03:21:45.352Z,998.01
2017-11-19T03:22:45.332Z,997.99
2017-11-19T03:23:45.319Z,997.96
2017-11-19T03:24:45.294Z,997.98
2017-11-19T03:25:45.283Z,997.93
2017-11-19T03:26:45.289Z,997.95
2017-11-19T03:27:45.247Z,997.94
2017-11-19T03:28:45.227Z,997.94
2017-11-19T03:29:45.243Z,997.96
2017-11-19T03:30:45.166Z,997.96
2017-11-19T03:31:45.161Z,998.02
2017-11-19T03:32:45.280Z,997.91
2017-11-19T03:33:45.113Z,997.90
2017-11-19T03:34:45.113Z,997.90
2017-11-19T03:35:45.130Z,997.81
2017-11-19T03:36:45.068Z,997.94
2017-11-19T03:37:45.064Z,997.90
2017-11-19T03:38:45.041Z,997.94
2017-11-19T03:39:45.033Z,997.98
2017-11-19T03:40:45.175Z,997.93
2017-11-19T03:41:44.989Z,997.99
2017-11-19T03:42:45.948Z,997.95
2017-11-19T03:43:44.966Z,997.92
2017-11-19T03:44:44.960Z,997.91
2017-11-19T03:45:44.907Z,997.91
2017-11-19T03:46:45.040Z,997.93
2017-11-19T03:47:44.870Z,997.90
2017-11-19T03:48:44.853Z,997.88
2017-11-19T03:49:44.849Z,997.93
2017-11-19T03:50:44.833Z,997.95
2017-11-19T03:51:44.826Z,997.88
2017-11-19T03:52:44.788Z,997.93
2017-11-19T03:53:44.773Z,997.88
2017-11-19T03:54:44.764Z,997.90
2017-11-19T03:55:44.734Z,997.88
2017-11-19T03:56:44.748Z,997.87
2017-11-19T03:57:44.730Z,997.85
2017-11-19T03:58:44.677Z,997.89
2017-11-19T03:59:44.661Z,997.89
2017-11-19T04:00:44.697Z,997.95
2017-11-19T04:01:44.665Z,997.94
2017-11-19T04:02:44.612Z,997.89
2017-11-19T04:03:44.581Z,997.91
2017-11-19T04:04:44.687Z,997.87
2017-11-19T04:05:44.597Z,997.82
2017-11-19T04:06:44.605Z,997.80
2017-11-19T04:07:44.590Z,997.81
2017-11-19T04:08:44.511Z,997.76
2017-11-19T04:09:44.472Z,997.78
2017-11-19T04:10:44.458Z,997.75
2017-11-19T04:11:44.436Z,997.79
2017-11-19T04:12:44.441Z,997.77
2017-11-19T04:13:44.504Z,997.78
2017-11-19T04:14:44.398Z,997.81
2017-11-19T04:15:44.368Z,997.72
2017-11-19T04:16:44.404Z,997.85
2017-11-19T04:17:44.369Z,997.81
2017-11-19T04:18:44.321Z,997.90
2017-11-19T04:19:44.296Z,997.82
2017-11-19T04:20:44.283Z,997.86
2017-11-19T04:21:44.350Z,997.86
2017-11-19T04:22:44.522Z,997.81
2017-11-19T04:23:44.238Z,997.79
2017-11-19T04:24:44.222Z,997.87
2017-11-19T04:25:44.189Z,997.79
2017-11-19T04:26:44.947Z,997.83
2017-11-19T04:27:44.175Z,997.83
2017-11-19T04:28:44.137Z,997.75
2017-11-19T04:29:44.151Z,997.73
2017-11-19T04:30:44.090Z,997.74
2017-11-19T04:31:44.080Z,997.72
2017-11-19T04:32:44.100Z,997.73
2017-11-19T04:33:44.058Z,997.67
2017-11-19T04:34:44.037Z,997.70
2017-11-19T04:35:44.038Z,997.73
2017-11-19T04:36:44.013Z,997.76
2017-11-19T04:37:44.029Z,997.82
2017-11-19T04:38:50.589Z,997.79
2017-11-19T04:45:02.659Z,997.80
2017-11-19T04:45:40.218Z,997.76
2017-11-19T04:46:46.842Z,997.70
2017-11-19T04:47:46.184Z,997.69
2017-11-19T04:48:40.410Z,997.64
2017-11-19T04:49:40.110Z,997.72
2017-11-19T04:50:39.853Z,997.73
2017-11-19T04:51:39.819Z,997.76
2017-11-19T04:52:39.784Z,997.81
2017-11-19T04:53:39.770Z,997.71
2017-11-19T04:54:41.511Z,997.74
2017-11-19T04:55:39.764Z,997.81
2017-11-19T04:56:39.820Z,997.81
2017-11-19T04:57:39.697Z,997.92
2017-11-19T04:58:41.557Z,997.87
2017-11-19T04:59:40.188Z,997.81
2017-11-19T05:00:39.998Z,997.83
2017-11-19T05:01:39.642Z,997.92
2017-11-19T05:02:40.540Z,997.84
2017-11-19T05:03:39.604Z,997.72
2017-11-19T05:04:39.710Z,997.70
2017-11-19T05:05:39.566Z,997.71
2017-11-19T05:06:41.485Z,997.66
2017-11-19T05:07:40.632Z,997.80
2017-11-19T05:08:46.487Z,997.71
2017-11-19T05:19:36.209Z,997.79
2017-11-19T05:20:09.503Z,997.71
2017-11-19T05:21:11.743Z,997.72
2017-11-19T05:22:13.367Z,997.72
2017-11-19T05:31:00.525Z,997.79
2017-11-19T05:45:16.532Z,997.77
2017-11-19T05:46:02.949Z,997.79
2017-11-19T05:47:41.628Z,997.74
2017-11-19T05:48:03.569Z,997.78
2017-11-19T05:49:14.941Z,997.78
2017-11-19T05:50:02.894Z,997.76
2017-11-19T05:51:03.287Z,997.77
2017-11-19T05:52:02.674Z,997.79
2017-11-19T05:53:02.822Z,997.69
2017-11-19T05:54:02.658Z,997.74
2017-11-19T06:13:55.807Z,997.86
2017-11-19T06:18:39.414Z,997.92
2017-11-19T06:19:39.481Z,997.85
2017-11-19T06:20:44.907Z,997.89
2017-11-19T06:21:39.307Z,997.88
2017-11-19T06:25:41.081Z,997.94
2017-11-19T06:30:06.514Z,997.98
2017-11-19T06:31:01.264Z,997.98
2017-11-19T06:32:00.025Z,997.96
2017-11-19T06:33:02.374Z,998.03
2017-11-19T06:34:00.887Z,998.01
2017-11-19T06:35:00.854Z,998.05
2017-11-19T06:36:00.354Z,998.02
2017-11-19T06:37:02.288Z,998.03
2017-11-19T06:40:33.259Z,998.15
2017-11-19T06:41:33.106Z,998.19
2017-11-19T06:42:40.693Z,998.13
2017-11-19T06:43:34.013Z,998.18
2017-11-19T06:44:32.834Z,998.15
2017-11-19T06:45:33.266Z,998.20
2017-11-19T06:46:43.506Z,998.13
2017-11-19T06:47:32.508Z,998.15
2017-11-19T06:48:32.435Z,998.13
2017-11-19T06:49:32.533Z,998.07
2017-11-19T06:50:32.420Z,998.07
2017-11-19T06:51:32.441Z,997.97
2017-11-19T06:52:38.411Z,998.02
2017-11-19T06:53:32.352Z,998.01
2017-11-19T06:54:32.516Z,998.03
2017-11-19T06:55:32.372Z,997.96
2017-11-19T06:56:32.346Z,998.12
2017-11-19T06:57:37.199Z,998.24
2017-11-19T06:58:32.311Z,998.09
2017-11-19T06:59:32.386Z,998.07
2017-11-19T07:00:32.445Z,998.10
2017-11-19T07:01:32.281Z,997.99
2017-11-19T07:02:32.238Z,998.09
2017-11-19T07:03:32.232Z,998.11
2017-11-19T07:04:33.161Z,998.00
2017-11-19T07:05:32.147Z,998.02
2017-11-19T07:06:32.716Z,997.96
2017-11-19T07:07:32.396Z,997.92
2017-11-19T07:08:32.284Z,998.02
2017-11-19T07:09:32.701Z,997.97
2017-11-19T07:10:32.049Z,998.01
2017-11-19T07:11:32.045Z,997.97
2017-11-19T07:12:36.695Z,997.99
2017-11-19T07:13:32.092Z,998.11
2017-11-19T07:14:32.023Z,998.07
2017-11-19T07:15:32.061Z,998.08
2017-11-19T07:16:34.719Z,998.15
2017-11-19T07:17:31.933Z,998.17
2017-11-19T07:18:31.915Z,998.16
2017-11-19T07:19:31.978Z,998.25
2017-11-19T07:20:31.871Z,998.30
2017-11-19T07:21:31.864Z,998.27
2017-11-19T07:22:31.850Z,998.38
2017-11-19T07:23:31.815Z,998.27
2017-11-19T07:24:31.865Z,998.35
2017-11-19T07:25:32.287Z,998.33
2017-11-19T07:30:20.721Z,998.26
2017-11-19T07:31:13.031Z,998.18
2017-11-19T07:32:12.614Z,998.32
2017-11-19T07:33:14.921Z,998.37
2017-11-19T07:34:12.958Z,998.38
2017-11-19T07:35:12.547Z,998.37
2017-11-19T07:36:14.355Z,998.30
2017-11-19T07:37:13.378Z,998.13
2017-11-19T07:38:12.447Z,998.33
2017-11-19T07:39:14.866Z,998.27
2017-11-19T07:40:12.316Z,998.19
2017-11-19T07:41:13.621Z,998.21
2017-11-19T07:42:13.010Z,998.20
2017-11-19T07:43:13.903Z,998.27
2017-11-19T07:49:04.085Z,998.29
2017-11-19T07:49:58.945Z,998.20
2017-11-19T07:50:58.606Z,998.41
2017-11-19T07:52:03.431Z,998.47
2017-11-19T07:52:58.530Z,998.54
2017-11-19T07:53:59.201Z,998.57
2017-11-19T07:54:58.504Z,998.55
2017-11-19T08:19:25.094Z,998.24
2017-11-19T08:20:24.043Z,998.49
2017-11-19T08:21:23.474Z,998.41
2017-11-19T08:22:22.940Z,998.25
2017-11-19T08:23:24.598Z,998.60
2017-11-19T08:24:22.907Z,998.31
2017-11-19T08:25:34.320Z,998.45
2017-11-19T08:49:16.974Z,998.35
2017-11-19T08:50:16.875Z,998.55
2017-11-19T08:51:16.856Z,998.55
2017-11-19T08:52:16.009Z,998.50
2017-11-19T08:53:15.983Z,998.57
2017-11-19T08:54:15.942Z,998.48
2017-11-19T08:55:16.707Z,998.40
2017-11-19T08:56:16.076Z,998.43
2017-11-19T08:57:16.688Z,998.42
2017-11-19T08:58:15.868Z,998.47
2017-11-19T08:59:15.866Z,998.44
2017-11-19T09:00:15.824Z,998.44
2017-11-19T09:01:16.180Z,998.46
2017-11-19T09:02:15.789Z,998.55
2017-11-19T09:03:15.767Z,998.59
2017-11-19T09:04:15.747Z,998.56
2017-11-19T09:05:15.905Z,998.64
2017-11-19T09:06:15.863Z,998.55
2017-11-19T09:07:15.702Z,998.65
2017-11-19T09:08:15.688Z,998.44
2017-11-19T09:09:15.694Z,998.61
2017-11-19T09:10:16.368Z,998.45
2017-11-19T09:11:15.621Z,998.56
2017-11-19T09:12:15.643Z,998.55
2017-11-19T09:13:15.597Z,998.81
2017-11-19T09:14:15.567Z,998.69
2017-11-19T09:15:17.231Z,998.87
2017-11-19T09:16:15.687Z,998.64
2017-11-19T09:17:16.171Z,998.64
2017-11-19T09:18:15.508Z,998.78
2017-11-19T09:19:15.494Z,998.74
2017-11-19T09:20:16.309Z,998.73
2017-11-19T09:21:15.462Z,998.63
2017-11-19T09:22:15.692Z,998.68
2017-11-19T09:23:15.410Z,998.81
2017-11-19T09:24:15.416Z,998.74
2017-11-19T09:25:15.400Z,998.72
2017-11-19T09:26:15.484Z,998.82
2017-11-19T09:27:15.339Z,998.86
2017-11-19T09:28:15.496Z,998.86
2017-11-19T09:29:15.615Z,998.84
2017-11-19T09:30:15.381Z,998.81
2017-11-19T09:31:15.378Z,998.74
2017-11-19T09:32:15.260Z,998.71
2017-11-19T09:33:27.612Z,998.85
2017-11-19T09:37:39.689Z,998.75
2017-11-19T09:53:08.177Z,998.85
2017-11-19T09:54:08.174Z,998.79
2017-11-19T09:55:07.868Z,998.73
2017-11-19T10:00:23.641Z,998.83
2017-11-19T10:01:26.577Z,998.94
2017-11-19T10:02:23.155Z,998.88
2017-11-19T10:03:23.284Z,998.90
2017-11-19T10:04:23.029Z,998.94
2017-11-19T10:05:23.018Z,998.94
2017-11-19T10:06:23.072Z,998.91
2017-11-19T10:07:23.651Z,998.85
2017-11-19T10:08:22.963Z,998.88
2017-11-19T10:09:22.932Z,998.91
2017-11-19T10:10:24.533Z,999.04
2017-11-19T10:11:22.907Z,999.02
2017-11-19T10:12:22.939Z,998.94
2017-11-19T10:13:22.871Z,998.88
2017-11-19T10:14:22.884Z,998.93
2017-11-19T10:15:24.523Z,998.74
2017-11-19T10:16:23.688Z,998.80
2017-11-19T10:17:23.762Z,998.88
2017-11-19T10:18:23.035Z,998.85
2017-11-19T10:31:27.819Z,998.74
2017-11-19T10:32:03.617Z,998.99
2017-11-19T10:32:52.248Z,998.97
2017-11-19T10:33:50.806Z,999.03
2017-11-19T10:34:53.857Z,998.93
2017-11-19T10:35:51.855Z,998.93
2017-11-19T10:36:50.878Z,998.92
2017-11-19T10:46:36.687Z,998.78
2017-11-19T10:47:32.899Z,999.01
2017-11-19T10:48:35.343Z,999.06
2017-11-19T10:49:32.205Z,999.00
2017-11-19T10:50:32.507Z,999.04
2017-11-19T10:51:32.481Z,998.81
2017-11-19T10:52:32.237Z,998.93
2017-11-19T10:53:32.131Z,998.93
2017-11-19T10:54:32.740Z,998.78
2017-11-19T10:55:32.256Z,999.07
2017-11-19T10:56:32.084Z,999.00
2017-11-19T10:57:32.700Z,999.14
2017-11-19T10:58:32.045Z,999.11
2017-11-19T10:59:32.034Z,999.13
2017-11-19T11:00:32.072Z,999.11
2017-11-19T11:01:32.128Z,999.11
2017-11-19T11:02:31.967Z,999.05
2017-11-19T11:03:36.848Z,999.02
2017-11-19T11:04:31.964Z,999.09
2017-11-19T11:05:32.694Z,999.06
2017-11-19T11:06:31.916Z,999.22
2017-11-19T11:07:32.192Z,999.17
2017-11-19T11:08:31.878Z,999.13
2017-11-19T11:09:31.866Z,999.11
2017-11-19T11:10:31.847Z,998.99
2017-11-19T11:11:32.701Z,999.15
2017-11-19T11:12:31.805Z,999.10
2017-11-19T11:13:31.864Z,999.08
2017-11-19T11:14:31.777Z,998.98
2017-11-19T11:15:31.778Z,999.02
2017-11-19T11:16:31.772Z,999.09
2017-11-19T11:17:31.735Z,998.84
2017-11-19T11:18:31.716Z,998.98
2017-11-19T11:19:32.166Z,999.11
2017-11-19T11:20:31.688Z,998.99
2017-11-19T11:21:32.437Z,999.11
2017-11-19T11:22:31.656Z,998.97
2017-11-19T11:23:31.630Z,999.02
2017-11-19T11:24:31.626Z,998.96
2017-11-19T11:25:33.288Z,998.96
2017-11-19T11:26:31.880Z,999.03
2017-11-19T11:27:31.560Z,999.10
2017-11-19T11:28:31.540Z,999.09
2017-11-19T11:29:31.531Z,999.16
2017-11-19T11:30:31.505Z,999.08
2017-11-19T11:31:31.570Z,998.99
2017-11-19T11:32:32.200Z,998.95
2017-11-19T11:33:31.474Z,999.26
2017-11-19T11:34:31.457Z,999.15
2017-11-19T11:35:31.445Z,999.07
2017-11-19T11:36:31.429Z,999.14
2017-11-19T11:37:31.473Z,999.17
2017-11-19T11:38:31.408Z,999.10
2017-11-19T11:39:31.365Z,999.12
2017-11-19T11:40:31.347Z,999.11
2017-11-19T11:41:31.327Z,999.03
2017-11-19T11:42:31.323Z,999.03
2017-11-19T11:43:31.442Z,999.10
2017-11-19T11:44:31.676Z,999.09
2017-11-19T11:45:32.806Z,998.96
2017-11-19T11:46:31.255Z,998.99
2017-11-19T11:47:31.257Z,999.06
2017-11-19T11:48:31.235Z,999.09
2017-11-19T11:49:31.344Z,999.07
2017-11-19T11:50:32.179Z,999.06
2017-11-19T11:51:31.199Z,999.14
2017-11-19T11:52:31.170Z,999.26
2017-11-19T11:53:31.144Z,999.14
2017-11-19T11:54:31.132Z,999.22
2017-11-19T11:55:31.176Z,999.09
2017-11-19T11:56:31.094Z,999.14
2017-11-19T11:57:31.084Z,999.08
2017-11-19T11:58:31.071Z,999.11
2017-11-19T11:59:31.842Z,999.15
2017-11-19T12:00:31.031Z,999.30
2017-11-19T12:01:31.152Z,999.29
2017-11-19T12:02:31.001Z,999.21
2017-11-19T12:03:31.259Z,999.17
2017-11-19T12:04:31.271Z,999.17
2017-11-19T12:05:31.183Z,999.06
2017-11-19T12:06:30.920Z,999.21
2017-11-19T12:07:31.086Z,998.72
2017-11-19T12:08:30.898Z,999.05
2017-11-19T12:09:30.883Z,999.25
2017-11-19T12:10:30.913Z,999.34
2017-11-19T12:11:30.870Z,999.35
2017-11-19T12:12:30.831Z,999.31
2017-11-19T12:13:30.879Z,999.10
2017-11-19T12:14:30.801Z,999.03
2017-11-19T12:15:30.799Z,999.27
2017-11-19T12:16:30.778Z,999.17
2017-11-19T12:17:30.770Z,999.21
2017-11-19T12:18:30.744Z,999.06
2017-11-19T12:19:30.788Z,999.15
2017-11-19T12:20:30.709Z,999.34
2017-11-19T12:21:31.803Z,999.40
2017-11-19T12:22:30.677Z,999.32
2017-11-19T12:23:30.670Z,999.38
2017-11-19T12:24:30.657Z,999.63
2017-11-19T12:25:30.650Z,999.45
2017-11-19T12:26:30.622Z,999.54
2017-11-19T12:27:30.581Z,999.47
2017-11-19T12:28:30.588Z,999.40
2017-11-19T12:29:30.566Z,999.38
2017-11-19T12:30:30.728Z,999.44
2017-11-19T12:31:30.529Z,999.28
2017-11-19T12:32:30.534Z,999.44
2017-11-19T12:33:30.510Z,999.37
2017-11-19T12:34:30.481Z,999.54
2017-11-19T12:35:30.473Z,999.47
2017-11-19T12:36:30.544Z,999.34
2017-11-19T12:37:30.442Z,999.44
2017-11-19T12:38:30.438Z,999.55
2017-11-19T12:39:30.416Z,999.82
2017-11-19T12:40:30.454Z,999.67
2017-11-19T12:41:30.390Z,999.63
2017-11-19T12:42:30.438Z,999.51
2017-11-19T12:43:30.366Z,999.44
2017-11-19T12:44:30.346Z,999.57
2017-11-19T12:45:30.326Z,999.55
2017-11-19T12:46:30.302Z,999.77
2017-11-19T12:47:30.278Z,999.51
2017-11-19T12:48:30.710Z,999.50
2017-11-19T12:49:30.279Z,999.53
2017-11-19T12:50:30.244Z,999.49
2017-11-19T12:51:30.229Z,999.47
2017-11-19T12:52:30.215Z,999.54
2017-11-19T12:53:30.185Z,999.45
2017-11-19T12:54:30.350Z,999.45
2017-11-19T12:55:30.148Z,999.48
2017-11-19T12:56:30.160Z,999.50
2017-11-19T12:57:30.128Z,999.54
2017-11-19T12:58:30.688Z,999.48
2017-11-19T12:59:30.123Z,999.44
2017-11-19T13:00:30.133Z,999.45
2017-11-19T13:01:30.053Z,999.46
2017-11-19T13:02:30.148Z,999.50
2017-11-19T13:03:30.044Z,999.43
2017-11-19T13:04:30.006Z,999.46
2017-11-19T13:05:29.989Z,999.39
2017-11-19T13:06:30.047Z,999.43
2017-11-19T13:07:30.693Z,999.44
2017-11-19T13:08:29.956Z,999.45
2017-11-19T13:09:29.945Z,999.39
2017-11-19T13:10:29.959Z,999.44
2017-11-19T13:11:29.934Z,999.50
2017-11-19T13:12:29.895Z,999.55
2017-11-19T13:13:29.866Z,999.67
2017-11-19T13:14:29.853Z,999.61
2017-11-19T13:15:29.839Z,999.74
2017-11-19T13:16:29.887Z,999.69
2017-11-19T13:17:29.827Z,999.54
2017-11-19T13:18:29.804Z,999.56
2017-11-19T13:19:29.995Z,999.71
2017-11-19T13:20:30.012Z,999.69
2017-11-19T13:21:29.790Z,999.73
2017-11-19T13:22:30.221Z,999.66
2017-11-19T13:23:30.896Z,999.50
2017-11-19T13:24:29.694Z,999.51
2017-11-19T13:25:29.688Z,999.50
2017-11-19T13:26:29.660Z,999.50
2017-11-19T13:27:29.888Z,999.47
2017-11-19T13:28:29.625Z,999.42
2017-11-19T13:29:29.615Z,999.45
2017-11-19T13:30:29.599Z,999.56
2017-11-19T13:31:29.616Z,999.47
2017-11-19T13:32:29.564Z,999.45
2017-11-19T13:33:29.680Z,999.51
2017-11-19T13:34:29.643Z,999.48
2017-11-19T13:35:29.583Z,999.50
2017-11-19T13:36:29.494Z,999.61
2017-11-19T13:37:29.561Z,999.48
2017-11-19T13:38:29.523Z,999.47
2017-11-19T13:39:29.649Z,999.54
2017-11-19T13:40:30.201Z,999.64
2017-11-19T13:41:29.421Z,999.57
2017-11-19T13:42:29.394Z,999.47
2017-11-19T13:43:29.408Z,999.41
2017-11-19T13:44:29.365Z,999.45
2017-11-19T13:45:29.498Z,999.45
2017-11-19T13:46:29.408Z,999.53
2017-11-19T13:47:29.332Z,999.48
2017-11-19T13:48:30.272Z,999.51
2017-11-19T13:49:29.339Z,999.56
2017-11-19T13:50:31.303Z,999.66
2017-11-19T13:51:31.278Z,999.52
2017-11-19T13:52:29.275Z,999.56
2017-11-19T13:53:30.500Z,999.75
2017-11-19T13:54:31.217Z,999.72
2017-11-19T13:55:30.704Z,999.66
2017-11-19T13:56:29.173Z,999.61
2017-11-19T13:57:29.176Z,999.77
2017-11-19T13:58:30.848Z,999.85
2017-11-19T13:59:29.359Z,999.71
2017-11-19T14:00:29.145Z,999.79
2017-11-19T14:01:29.097Z,999.61
2017-11-19T14:02:29.121Z,999.77
2017-11-19T14:03:29.068Z,999.69
2017-11-19T14:04:29.476Z,999.73
2017-11-19T14:05:29.571Z,999.79
2017-11-19T14:06:29.023Z,999.74
2017-11-19T14:07:29.025Z,999.75
2017-11-19T14:08:29.001Z,999.85
2017-11-19T14:09:29.712Z,999.86
2017-11-19T14:10:28.961Z,999.79
2017-11-19T14:11:28.992Z,999.75
2017-11-19T14:12:28.933Z,999.74
2017-11-19T14:13:28.922Z,999.77
2017-11-19T14:14:30.705Z,999.79
2017-11-19T14:15:28.892Z,999.78
2017-11-19T14:16:28.951Z,999.73
2017-11-19T14:17:28.867Z,999.80
2017-11-19T14:18:28.851Z,999.78
2017-11-19T14:19:28.819Z,999.79
2017-11-19T14:20:28.803Z,999.83
2017-11-19T14:21:28.836Z,999.78
2017-11-19T14:22:28.816Z,999.86
2017-11-19T14:23:28.779Z,999.93
2017-11-19T14:24:28.762Z,999.93
2017-11-19T14:25:30.191Z,999.86
2017-11-19T14:26:28.871Z,999.93
2017-11-19T14:27:28.750Z,1000.03
2017-11-19T14:28:33.226Z,999.99
2017-11-19T14:29:28.678Z,1000.05
2017-11-19T14:30:28.854Z,999.94
2017-11-19T14:31:28.645Z,999.93
2017-11-19T14:32:28.717Z,999.81
2017-11-19T14:33:28.632Z,999.90
2017-11-19T14:34:28.825Z,999.89
2017-11-19T14:35:28.590Z,999.90
2017-11-19T14:36:28.804Z,999.96
2017-11-19T14:37:28.582Z,999.88
2017-11-19T14:38:28.644Z,1000.00
2017-11-19T14:39:28.532Z,999.91
2017-11-19T14:40:28.526Z,999.86
2017-11-19T14:41:28.516Z,999.86
2017-11-19T14:42:28.524Z,1000.04
2017-11-19T14:43:29.249Z,1000.09
2017-11-19T14:44:28.510Z,999.91
2017-11-19T14:45:28.434Z,999.99
2017-11-19T14:46:29.208Z,999.96
2017-11-19T14:47:28.404Z,1000.08
2017-11-19T14:48:28.417Z,1000.07
2017-11-19T14:49:28.384Z,1000.04
2017-11-19T14:50:29.219Z,999.87
2017-11-19T14:51:28.361Z,1000.00
2017-11-19T14:52:28.325Z,1000.03
2017-11-19T14:53:28.327Z,1000.04
2017-11-19T14:54:28.310Z,1000.03
2017-11-19T14:55:28.297Z,1000.01
2017-11-19T14:56:28.324Z,1000.05
2017-11-19T14:57:29.223Z,999.94
2017-11-19T14:58:28.337Z,1000.04
2017-11-19T14:59:28.361Z,1000.12
2017-11-19T15:00:28.218Z,1000.06
2017-11-19T15:01:29.116Z,1000.08
2017-11-19T15:02:28.978Z,1000.08
2017-11-19T15:03:28.445Z,999.97
2017-11-19T15:04:28.128Z,1000.09
2017-11-19T15:05:28.116Z,1000.08
2017-11-19T15:06:28.113Z,1000.01
2017-11-19T15:07:28.238Z,1000.02
2017-11-19T15:08:28.075Z,999.90
2017-11-19T15:09:28.067Z,1000.00
2017-11-19T15:10:28.038Z,1000.13
2017-11-19T15:11:28.026Z,1000.07